sensor_id;sensor_type;location;lat;lon;timestamp;pressure;altitude;pressure_sealevel;temperature;humidity
72134;BME280;60011;51.518;-3.188;2022-08-19T00:00:10;100873.05;;;25.11;55.47
72134;BME280;60011;51.518;-3.188;2022-08-19T00:02:34;100869.99;;;25.09;55.44
72134;BME280;60011;51.518;-3.188;2022-08-19T00:04:59;100874.77;;;25.10;55.50
72134;BME280;60011;51.518;-3.188;2022-08-19T00:07:24;100879.02;;;25.10;55.48
72134;BME280;60011;51.518;-3.188;2022-08-19T00:09:50;100872.93;;;25.09;55.43
72134;BME280;60011;51.518;-3.188;2022-08-19T00:12:15;100874.87;;;25.09;55.32
72134;BME280;60011;51.518;-3.188;2022-08-19T00:14:40;100873.51;;;25.09;55.39
72134;BME280;60011;51.518;-3.188;2022-08-19T00:17:06;100869.23;;;25.12;55.22
72134;BME280;60011;51.518;-3.188;2022-08-19T00:19:32;100871.36;;;25.13;55.07
72134;BME280;60011;51.518;-3.188;2022-08-19T00:21:56;100874.62;;;25.08;55.15
72134;BME280;60011;51.518;-3.188;2022-08-19T00:24:22;100875.25;;;25.06;55.20
72134;BME280;60011;51.518;-3.188;2022-08-19T00:26:47;100877.93;;;25.04;55.29
72134;BME280;60011;51.518;-3.188;2022-08-19T00:29:15;100880.29;;;25.04;55.09
72134;BME280;60011;51.518;-3.188;2022-08-19T00:31:38;100886.71;;;25.05;55.07
72134;BME280;60011;51.518;-3.188;2022-08-19T00:34:03;100887.31;;;25.05;55.01
72134;BME280;60011;51.518;-3.188;2022-08-19T00:36:28;100887.44;;;25.01;55.02
72134;BME280;60011;51.518;-3.188;2022-08-19T00:38:53;100888.12;;;25.04;54.97
72134;BME280;60011;51.518;-3.188;2022-08-19T00:41:21;100888.54;;;25.02;54.86
72134;BME280;60011;51.518;-3.188;2022-08-19T00:43:58;100885.97;;;24.99;54.92
72134;BME280;60011;51.518;-3.188;2022-08-19T00:46:10;100885.73;;;24.99;54.94
72134;BME280;60011;51.518;-3.188;2022-08-19T00:48:35;100883.25;;;24.99;54.95
72134;BME280;60011;51.518;-3.188;2022-08-19T00:51:00;100879.50;;;24.99;54.90
72134;BME280;60011;51.518;-3.188;2022-08-19T00:53:28;100884.94;;;24.97;55.01
72134;BME280;60011;51.518;-3.188;2022-08-19T00:55:53;100887.95;;;24.97;54.92
72134;BME280;60011;51.518;-3.188;2022-08-19T00:58:18;100895.16;;;24.97;54.93
72134;BME280;60011;51.518;-3.188;2022-08-19T01:00:41;100894.44;;;24.97;54.82
72134;BME280;60011;51.518;-3.188;2022-08-19T01:03:08;100894.15;;;24.97;54.78
72134;BME280;60011;51.518;-3.188;2022-08-19T01:05:32;100891.14;;;24.96;54.78
72134;BME280;60011;51.518;-3.188;2022-08-19T01:07:59;100886.70;;;24.97;54.81
72134;BME280;60011;51.518;-3.188;2022-08-19T01:10:24;100883.45;;;24.97;54.77
72134;BME280;60011;51.518;-3.188;2022-08-19T01:12:48;100888.57;;;24.97;54.72
72134;BME280;60011;51.518;-3.188;2022-08-19T01:15:16;100890.34;;;24.96;54.61
72134;BME280;60011;51.518;-3.188;2022-08-19T01:17:40;100887.17;;;24.96;54.61
72134;BME280;60011;51.518;-3.188;2022-08-19T01:20:04;100885.99;;;24.95;54.66
72134;BME280;60011;51.518;-3.188;2022-08-19T01:22:30;100883.25;;;24.94;54.57
72134;BME280;60011;51.518;-3.188;2022-08-19T01:24:53;100889.16;;;24.95;54.54
72134;BME280;60011;51.518;-3.188;2022-08-19T01:27:19;100890.55;;;24.94;54.49
72134;BME280;60011;51.518;-3.188;2022-08-19T01:29:45;100889.98;;;24.93;54.56
72134;BME280;60011;51.518;-3.188;2022-08-19T01:32:13;100889.37;;;24.93;54.48
72134;BME280;60011;51.518;-3.188;2022-08-19T01:34:34;100887.35;;;24.94;54.40
72134;BME280;60011;51.518;-3.188;2022-08-19T01:37:01;100888.74;;;24.94;54.29
72134;BME280;60011;51.518;-3.188;2022-08-19T01:39:25;100894.40;;;24.95;54.37
72134;BME280;60011;51.518;-3.188;2022-08-19T01:41:51;100895.03;;;24.95;54.37
72134;BME280;60011;51.518;-3.188;2022-08-19T01:44:16;100894.37;;;24.95;54.32
72134;BME280;60011;51.518;-3.188;2022-08-19T01:46:41;100893.33;;;24.93;54.41
72134;BME280;60011;51.518;-3.188;2022-08-19T01:49:07;100893.53;;;24.93;54.45
72134;BME280;60011;51.518;-3.188;2022-08-19T01:51:32;100899.69;;;24.93;54.25
72134;BME280;60011;51.518;-3.188;2022-08-19T01:53:57;100901.03;;;24.89;54.22
72134;BME280;60011;51.518;-3.188;2022-08-19T01:56:23;100900.62;;;24.91;54.29
72134;BME280;60011;51.518;-3.188;2022-08-19T01:58:50;100899.58;;;24.87;54.25
72134;BME280;60011;51.518;-3.188;2022-08-19T02:01:12;100902.76;;;24.88;54.25
72134;BME280;60011;51.518;-3.188;2022-08-19T02:03:38;100901.78;;;24.87;54.30
72134;BME280;60011;51.518;-3.188;2022-08-19T02:06:03;100901.28;;;24.89;54.16
72134;BME280;60011;51.518;-3.188;2022-08-19T02:08:29;100903.79;;;24.88;54.20
72134;BME280;60011;51.518;-3.188;2022-08-19T02:10:53;100906.43;;;24.87;54.14
72134;BME280;60011;51.518;-3.188;2022-08-19T02:13:19;100904.57;;;24.85;54.23
72134;BME280;60011;51.518;-3.188;2022-08-19T02:15:44;100901.71;;;24.84;54.25
72134;BME280;60011;51.518;-3.188;2022-08-19T02:18:09;100901.79;;;24.85;54.18
72134;BME280;60011;51.518;-3.188;2022-08-19T02:20:35;100902.71;;;24.84;54.20
72134;BME280;60011;51.518;-3.188;2022-08-19T02:23:00;100900.49;;;24.84;54.17
72134;BME280;60011;51.518;-3.188;2022-08-19T02:25:25;100900.87;;;24.84;54.10
72134;BME280;60011;51.518;-3.188;2022-08-19T02:27:50;100901.98;;;24.84;54.01
72134;BME280;60011;51.518;-3.188;2022-08-19T02:30:17;100899.39;;;24.83;54.04
72134;BME280;60011;51.518;-3.188;2022-08-19T02:32:41;100903.12;;;24.83;53.92
72134;BME280;60011;51.518;-3.188;2022-08-19T02:35:07;100902.03;;;24.83;53.98
72134;BME280;60011;51.518;-3.188;2022-08-19T02:37:31;100904.82;;;24.84;53.86
72134;BME280;60011;51.518;-3.188;2022-08-19T02:39:57;100909.92;;;24.84;53.85
72134;BME280;60011;51.518;-3.188;2022-08-19T02:42:22;100911.38;;;24.84;53.87
72134;BME280;60011;51.518;-3.188;2022-08-19T02:44:47;100908.20;;;24.84;53.85
72134;BME280;60011;51.518;-3.188;2022-08-19T02:47:12;100911.96;;;24.84;53.67
72134;BME280;60011;51.518;-3.188;2022-08-19T02:49:37;100914.43;;;24.82;53.77
72134;BME280;60011;51.518;-3.188;2022-08-19T02:52:03;100911.90;;;24.81;53.73
72134;BME280;60011;51.518;-3.188;2022-08-19T02:54:28;100911.02;;;24.81;53.64
72134;BME280;60011;51.518;-3.188;2022-08-19T02:56:53;100915.28;;;24.80;53.79
72134;BME280;60011;51.518;-3.188;2022-08-19T02:59:18;100913.19;;;24.80;53.67
72134;BME280;60011;51.518;-3.188;2022-08-19T03:01:45;100914.46;;;24.80;53.66
72134;BME280;60011;51.518;-3.188;2022-08-19T03:04:12;100911.24;;;24.80;53.69
72134;BME280;60011;51.518;-3.188;2022-08-19T03:06:36;100908.34;;;24.80;53.67
72134;BME280;60011;51.518;-3.188;2022-08-19T03:08:59;100912.83;;;24.80;53.49
72134;BME280;60011;51.518;-3.188;2022-08-19T03:11:27;100915.92;;;24.79;53.63
72134;BME280;60011;51.518;-3.188;2022-08-19T03:13:50;100917.09;;;24.80;53.58
72134;BME280;60011;51.518;-3.188;2022-08-19T03:16:16;100919.26;;;24.78;53.49
72134;BME280;60011;51.518;-3.188;2022-08-19T03:18:40;100925.85;;;24.77;53.50
72134;BME280;60011;51.518;-3.188;2022-08-19T03:21:06;100928.81;;;24.78;53.48
72134;BME280;60011;51.518;-3.188;2022-08-19T03:23:31;100934.84;;;24.77;53.49
72134;BME280;60011;51.518;-3.188;2022-08-19T03:25:56;100938.97;;;24.77;53.47
72134;BME280;60011;51.518;-3.188;2022-08-19T03:28:21;100939.65;;;24.77;53.38
72134;BME280;60011;51.518;-3.188;2022-08-19T03:30:57;100941.33;;;24.76;53.34
72134;BME280;60011;51.518;-3.188;2022-08-19T03:33:12;100948.48;;;24.76;53.31
72134;BME280;60011;51.518;-3.188;2022-08-19T03:35:37;100951.03;;;24.76;53.28
72134;BME280;60011;51.518;-3.188;2022-08-19T03:38:03;100949.30;;;24.75;53.37
72134;BME280;60011;51.518;-3.188;2022-08-19T03:40:28;100954.45;;;24.74;53.27
72134;BME280;60011;51.518;-3.188;2022-08-19T03:42:53;100956.44;;;24.74;53.29
72134;BME280;60011;51.518;-3.188;2022-08-19T03:45:18;100958.38;;;24.73;53.24
72134;BME280;60011;51.518;-3.188;2022-08-19T03:47:43;100964.53;;;24.74;53.28
72134;BME280;60011;51.518;-3.188;2022-08-19T03:50:09;100965.07;;;24.74;53.17
72134;BME280;60011;51.518;-3.188;2022-08-19T03:52:34;100965.57;;;24.73;53.12
72134;BME280;60011;51.518;-3.188;2022-08-19T03:54:59;100968.19;;;24.72;53.21
72134;BME280;60011;51.518;-3.188;2022-08-19T03:57:24;100974.15;;;24.72;53.20
72134;BME280;60011;51.518;-3.188;2022-08-19T03:59:50;100976.56;;;24.72;53.09
72134;BME280;60011;51.518;-3.188;2022-08-19T04:02:15;100980.03;;;24.72;53.01
72134;BME280;60011;51.518;-3.188;2022-08-19T04:04:42;100981.09;;;24.72;53.03
72134;BME280;60011;51.518;-3.188;2022-08-19T04:07:06;100982.87;;;24.71;53.04
72134;BME280;60011;51.518;-3.188;2022-08-19T04:09:33;100985.19;;;24.70;53.02
72134;BME280;60011;51.518;-3.188;2022-08-19T04:11:57;100987.88;;;24.68;53.05
72134;BME280;60011;51.518;-3.188;2022-08-19T04:14:24;100991.09;;;24.68;53.06
72134;BME280;60011;51.518;-3.188;2022-08-19T04:16:48;100992.84;;;24.68;52.98
72134;BME280;60011;51.518;-3.188;2022-08-19T04:19:13;100993.99;;;24.68;52.97
72134;BME280;60011;51.518;-3.188;2022-08-19T04:21:38;101000.63;;;24.66;52.99
72134;BME280;60011;51.518;-3.188;2022-08-19T04:24:03;101003.88;;;24.66;52.99
72134;BME280;60011;51.518;-3.188;2022-08-19T04:26:32;101006.75;;;24.66;52.93
72134;BME280;60011;51.518;-3.188;2022-08-19T04:28:54;101004.07;;;24.65;52.92
72134;BME280;60011;51.518;-3.188;2022-08-19T04:31:20;101003.21;;;24.64;52.91
72134;BME280;60011;51.518;-3.188;2022-08-19T04:33:44;101006.86;;;24.64;52.94
72134;BME280;60011;51.518;-3.188;2022-08-19T04:36:16;101008.87;;;24.64;52.93
72134;BME280;60011;51.518;-3.188;2022-08-19T04:38:35;101011.32;;;24.64;52.77
72134;BME280;60011;51.518;-3.188;2022-08-19T04:41:03;101013.58;;;24.63;52.78
72134;BME280;60011;51.518;-3.188;2022-08-19T04:43:26;101017.83;;;24.62;52.74
72134;BME280;60011;51.518;-3.188;2022-08-19T04:45:51;101016.76;;;24.62;52.75
72134;BME280;60011;51.518;-3.188;2022-08-19T04:48:16;101020.03;;;24.61;52.83
72134;BME280;60011;51.518;-3.188;2022-08-19T04:50:43;101024.63;;;24.60;52.77
72134;BME280;60011;51.518;-3.188;2022-08-19T04:53:07;101033.56;;;24.59;52.73
72134;BME280;60011;51.518;-3.188;2022-08-19T04:55:32;101040.74;;;24.58;52.76
72134;BME280;60011;51.518;-3.188;2022-08-19T04:57:57;101045.83;;;24.57;52.85
72134;BME280;60011;51.518;-3.188;2022-08-19T05:00:22;101048.19;;;24.55;52.86
72134;BME280;60011;51.518;-3.188;2022-08-19T05:02:47;101045.08;;;24.54;52.89
72134;BME280;60011;51.518;-3.188;2022-08-19T05:05:12;101048.29;;;24.55;52.79
72134;BME280;60011;51.518;-3.188;2022-08-19T05:07:38;101047.77;;;24.53;52.79
72134;BME280;60011;51.518;-3.188;2022-08-19T05:10:04;101048.98;;;24.55;52.72
72134;BME280;60011;51.518;-3.188;2022-08-19T05:12:28;101049.31;;;24.53;52.60
72134;BME280;60011;51.518;-3.188;2022-08-19T05:14:54;101047.96;;;24.52;52.69
72134;BME280;60011;51.518;-3.188;2022-08-19T05:17:19;101050.03;;;24.51;52.72
72134;BME280;60011;51.518;-3.188;2022-08-19T05:19:44;101055.08;;;24.51;52.64
72134;BME280;60011;51.518;-3.188;2022-08-19T05:22:09;101059.88;;;24.51;52.62
72134;BME280;60011;51.518;-3.188;2022-08-19T05:24:36;101063.31;;;24.49;52.56
72134;BME280;60011;51.518;-3.188;2022-08-19T05:27:00;101069.15;;;24.48;52.63
72134;BME280;60011;51.518;-3.188;2022-08-19T05:29:26;101071.75;;;24.49;52.59
72134;BME280;60011;51.518;-3.188;2022-08-19T05:31:51;101075.97;;;24.48;52.53
72134;BME280;60011;51.518;-3.188;2022-08-19T05:34:17;101080.67;;;24.48;52.59
72134;BME280;60011;51.518;-3.188;2022-08-19T05:36:43;101085.76;;;24.47;52.54
72134;BME280;60011;51.518;-3.188;2022-08-19T05:39:07;101090.39;;;24.47;52.54
72134;BME280;60011;51.518;-3.188;2022-08-19T05:41:31;101094.79;;;24.47;52.48
72134;BME280;60011;51.518;-3.188;2022-08-19T05:43:57;101096.96;;;24.46;52.36
72134;BME280;60011;51.518;-3.188;2022-08-19T05:46:22;101100.91;;;24.47;52.37
72134;BME280;60011;51.518;-3.188;2022-08-19T05:48:47;101108.00;;;24.46;52.41
72134;BME280;60011;51.518;-3.188;2022-08-19T05:51:13;101103.09;;;24.45;52.32
72134;BME280;60011;51.518;-3.188;2022-08-19T05:53:38;101102.00;;;24.45;52.40
72134;BME280;60011;51.518;-3.188;2022-08-19T05:56:04;101099.38;;;24.44;52.29
72134;BME280;60011;51.518;-3.188;2022-08-19T05:58:28;101099.21;;;24.43;52.27
72134;BME280;60011;51.518;-3.188;2022-08-19T06:00:53;101104.38;;;24.42;52.26
72134;BME280;60011;51.518;-3.188;2022-08-19T06:03:19;101109.52;;;24.42;52.35
72134;BME280;60011;51.518;-3.188;2022-08-19T06:05:44;101106.61;;;24.42;52.16
72134;BME280;60011;51.518;-3.188;2022-08-19T06:08:09;101104.26;;;24.45;52.05
72134;BME280;60011;51.518;-3.188;2022-08-19T06:10:34;101105.93;;;24.44;52.02
72134;BME280;60011;51.518;-3.188;2022-08-19T06:13:00;101106.39;;;24.44;51.83
72134;BME280;60011;51.518;-3.188;2022-08-19T06:15:25;101110.77;;;24.45;51.85
72134;BME280;60011;51.518;-3.188;2022-08-19T06:17:51;101111.97;;;24.43;51.85
72134;BME280;60011;51.518;-3.188;2022-08-19T06:20:16;101113.19;;;24.43;51.97
72134;BME280;60011;51.518;-3.188;2022-08-19T06:22:43;101116.42;;;24.43;52.02
72134;BME280;60011;51.518;-3.188;2022-08-19T06:25:07;101122.22;;;24.44;52.01
72134;BME280;60011;51.518;-3.188;2022-08-19T06:27:32;101123.01;;;24.45;51.84
72134;BME280;60011;51.518;-3.188;2022-08-19T06:29:57;101124.50;;;24.45;51.84
72134;BME280;60011;51.518;-3.188;2022-08-19T06:32:22;101130.31;;;24.46;52.29
72134;BME280;60011;51.518;-3.188;2022-08-19T06:34:47;101129.34;;;24.51;53.32
72134;BME280;60011;51.518;-3.188;2022-08-19T06:37:13;101129.94;;;24.51;54.61
72134;BME280;60011;51.518;-3.188;2022-08-19T06:39:40;101134.57;;;24.53;54.94
72134;BME280;60011;51.518;-3.188;2022-08-19T06:42:05;101134.67;;;24.55;54.85
72134;BME280;60011;51.518;-3.188;2022-08-19T06:44:29;101135.66;;;24.58;55.41
72134;BME280;60011;51.518;-3.188;2022-08-19T06:46:54;101135.74;;;24.61;55.01
72134;BME280;60011;51.518;-3.188;2022-08-19T06:49:19;101135.93;;;24.61;55.25
72134;BME280;60011;51.518;-3.188;2022-08-19T06:51:46;101134.31;;;24.63;55.14
72134;BME280;60011;51.518;-3.188;2022-08-19T06:54:10;101131.25;;;24.66;55.57
72134;BME280;60011;51.518;-3.188;2022-08-19T06:56:35;101135.49;;;24.38;52.26
72134;BME280;60011;51.518;-3.188;2022-08-19T06:59:00;101134.58;;;23.98;52.82
72134;BME280;60011;51.518;-3.188;2022-08-19T07:01:25;101141.21;;;23.75;52.42
72134;BME280;60011;51.518;-3.188;2022-08-19T07:03:51;101143.47;;;23.65;52.79
72134;BME280;60011;51.518;-3.188;2022-08-19T07:06:18;101143.10;;;23.54;52.72
72134;BME280;60011;51.518;-3.188;2022-08-19T07:08:41;101139.95;;;23.38;52.45
72134;BME280;60011;51.518;-3.188;2022-08-19T07:11:07;101143.27;;;23.26;52.09
72134;BME280;60011;51.518;-3.188;2022-08-19T07:13:32;101148.35;;;23.11;52.76
72134;BME280;60011;51.518;-3.188;2022-08-19T07:15:58;101153.38;;;23.06;52.51
72134;BME280;60011;51.518;-3.188;2022-08-19T07:18:23;101154.04;;;23.11;52.19
72134;BME280;60011;51.518;-3.188;2022-08-19T07:20:48;101159.14;;;23.02;52.39
72134;BME280;60011;51.518;-3.188;2022-08-19T07:23:14;101157.88;;;22.91;52.35
72134;BME280;60011;51.518;-3.188;2022-08-19T07:25:39;101160.48;;;22.79;51.38
72134;BME280;60011;51.518;-3.188;2022-08-19T07:28:05;101161.30;;;22.75;52.46
72134;BME280;60011;51.518;-3.188;2022-08-19T07:30:31;101165.26;;;22.79;52.94
72134;BME280;60011;51.518;-3.188;2022-08-19T07:32:56;101166.21;;;22.90;53.28
72134;BME280;60011;51.518;-3.188;2022-08-19T07:35:21;101165.88;;;23.00;52.76
72134;BME280;60011;51.518;-3.188;2022-08-19T07:37:46;101164.76;;;22.85;51.14
72134;BME280;60011;51.518;-3.188;2022-08-19T07:40:12;101165.37;;;22.77;51.22
72134;BME280;60011;51.518;-3.188;2022-08-19T07:42:38;101167.84;;;22.81;52.24
72134;BME280;60011;51.518;-3.188;2022-08-19T07:45:04;101167.56;;;22.77;51.15
72134;BME280;60011;51.518;-3.188;2022-08-19T07:47:28;101166.80;;;22.77;50.18
72134;BME280;60011;51.518;-3.188;2022-08-19T07:49:53;101165.65;;;22.72;51.55
72134;BME280;60011;51.518;-3.188;2022-08-19T07:52:19;101167.75;;;22.66;50.95
72134;BME280;60011;51.518;-3.188;2022-08-19T07:54:44;101167.54;;;22.68;51.63
72134;BME280;60011;51.518;-3.188;2022-08-19T07:57:09;101161.04;;;22.59;49.31
72134;BME280;60011;51.518;-3.188;2022-08-19T07:59:35;101160.65;;;22.63;50.21
72134;BME280;60011;51.518;-3.188;2022-08-19T08:02:00;101164.93;;;22.66;49.61
72134;BME280;60011;51.518;-3.188;2022-08-19T08:04:26;101172.34;;;22.61;47.95
72134;BME280;60011;51.518;-3.188;2022-08-19T08:06:50;101176.80;;;22.55;50.16
72134;BME280;60011;51.518;-3.188;2022-08-19T08:09:19;101181.84;;;22.70;51.80
72134;BME280;60011;51.518;-3.188;2022-08-19T08:11:45;101185.74;;;22.83;52.17
72134;BME280;60011;51.518;-3.188;2022-08-19T08:14:08;101191.77;;;22.97;52.36
72134;BME280;60011;51.518;-3.188;2022-08-19T08:16:35;101193.29;;;23.08;52.28
72134;BME280;60011;51.518;-3.188;2022-08-19T08:18:58;101195.06;;;23.16;52.37
72134;BME280;60011;51.518;-3.188;2022-08-19T08:21:23;101195.99;;;23.21;52.30
72134;BME280;60011;51.518;-3.188;2022-08-19T08:23:48;101197.69;;;23.26;52.33
72134;BME280;60011;51.518;-3.188;2022-08-19T08:26:14;101195.76;;;23.37;52.17
72134;BME280;60011;51.518;-3.188;2022-08-19T08:28:39;101196.36;;;23.39;52.25
72134;BME280;60011;51.518;-3.188;2022-08-19T08:31:04;101194.83;;;23.51;52.03
72134;BME280;60011;51.518;-3.188;2022-08-19T08:33:30;101194.88;;;23.51;51.96
72134;BME280;60011;51.518;-3.188;2022-08-19T08:35:55;101193.71;;;23.60;51.67
72134;BME280;60011;51.518;-3.188;2022-08-19T08:38:21;101196.13;;;23.64;51.70
72134;BME280;60011;51.518;-3.188;2022-08-19T08:40:48;101200.77;;;23.64;51.83
72134;BME280;60011;51.518;-3.188;2022-08-19T08:43:21;101200.84;;;23.70;51.52
72134;BME280;60011;51.518;-3.188;2022-08-19T08:45:44;101202.91;;;23.76;51.33
72134;BME280;60011;51.518;-3.188;2022-08-19T08:48:09;101205.07;;;23.73;51.42
72134;BME280;60011;51.518;-3.188;2022-08-19T08:50:31;101207.24;;;23.78;51.30
72134;BME280;60011;51.518;-3.188;2022-08-19T08:52:56;101207.89;;;23.79;51.27
72134;BME280;60011;51.518;-3.188;2022-08-19T08:55:20;101203.28;;;23.86;50.94
72134;BME280;60011;51.518;-3.188;2022-08-19T08:57:51;101202.69;;;23.91;50.81
72134;BME280;60011;51.518;-3.188;2022-08-19T09:00:14;101204.69;;;23.95;50.54
72134;BME280;60011;51.518;-3.188;2022-08-19T09:02:36;101206.02;;;23.98;50.53
72134;BME280;60011;51.518;-3.188;2022-08-19T09:04:59;101203.67;;;24.01;50.19
72134;BME280;60011;51.518;-3.188;2022-08-19T09:07:34;101204.97;;;24.02;50.06
72134;BME280;60011;51.518;-3.188;2022-08-19T09:09:51;101210.07;;;24.04;49.96
72134;BME280;60011;51.518;-3.188;2022-08-19T09:12:19;101212.68;;;24.04;49.79
72134;BME280;60011;51.518;-3.188;2022-08-19T09:14:47;101211.55;;;24.07;49.66
72134;BME280;60011;51.518;-3.188;2022-08-19T09:17:05;101216.36;;;24.10;49.80
72134;BME280;60011;51.518;-3.188;2022-08-19T09:19:31;101217.58;;;24.09;49.73
72134;BME280;60011;51.518;-3.188;2022-08-19T09:21:56;101217.07;;;24.10;49.63
72134;BME280;60011;51.518;-3.188;2022-08-19T09:24:21;101219.60;;;24.14;49.51
72134;BME280;60011;51.518;-3.188;2022-08-19T09:26:47;101223.39;;;24.16;49.41
72134;BME280;60011;51.518;-3.188;2022-08-19T09:29:13;101217.91;;;24.17;49.00
72134;BME280;60011;51.518;-3.188;2022-08-19T09:31:38;101225.31;;;24.19;48.93
72134;BME280;60011;51.518;-3.188;2022-08-19T09:34:04;101229.50;;;24.18;48.99
72134;BME280;60011;51.518;-3.188;2022-08-19T09:36:30;101228.86;;;24.18;48.84
72134;BME280;60011;51.518;-3.188;2022-08-19T09:38:55;101232.20;;;24.19;48.49
72134;BME280;60011;51.518;-3.188;2022-08-19T09:41:22;101230.18;;;24.18;48.81
72134;BME280;60011;51.518;-3.188;2022-08-19T09:43:47;101229.73;;;24.17;48.96
72134;BME280;60011;51.518;-3.188;2022-08-19T09:46:10;101227.53;;;24.20;48.51
72134;BME280;60011;51.518;-3.188;2022-08-19T09:48:36;101227.56;;;24.23;48.66
72134;BME280;60011;51.518;-3.188;2022-08-19T09:51:03;101230.64;;;24.26;48.11
72134;BME280;60011;51.518;-3.188;2022-08-19T09:53:26;101228.19;;;24.25;48.15
72134;BME280;60011;51.518;-3.188;2022-08-19T09:55:51;101225.28;;;24.27;48.23
72134;BME280;60011;51.518;-3.188;2022-08-19T09:58:17;101214.73;;;24.28;48.12
72134;BME280;60011;51.518;-3.188;2022-08-19T10:00:42;101209.89;;;24.29;47.99
72134;BME280;60011;51.518;-3.188;2022-08-19T10:03:08;101210.58;;;24.28;47.95
72134;BME280;60011;51.518;-3.188;2022-08-19T10:05:33;101208.57;;;24.29;47.99
72134;BME280;60011;51.518;-3.188;2022-08-19T10:07:58;101207.92;;;24.29;47.95
72134;BME280;60011;51.518;-3.188;2022-08-19T10:10:24;101209.83;;;24.30;47.97
72134;BME280;60011;51.518;-3.188;2022-08-19T10:12:49;101214.51;;;24.33;47.66
72134;BME280;60011;51.518;-3.188;2022-08-19T10:15:15;101214.12;;;24.36;47.40
72134;BME280;60011;51.518;-3.188;2022-08-19T10:17:40;101213.30;;;24.36;47.36
72134;BME280;60011;51.518;-3.188;2022-08-19T10:20:06;101208.11;;;24.33;47.54
72134;BME280;60011;51.518;-3.188;2022-08-19T10:22:30;101202.48;;;24.37;47.34
72134;BME280;60011;51.518;-3.188;2022-08-19T10:24:55;101205.91;;;24.38;47.33
72134;BME280;60011;51.518;-3.188;2022-08-19T10:27:21;101204.31;;;24.38;46.94
72134;BME280;60011;51.518;-3.188;2022-08-19T10:29:46;101202.34;;;24.38;46.81
72134;BME280;60011;51.518;-3.188;2022-08-19T10:32:11;101208.96;;;24.40;46.72
72134;BME280;60011;51.518;-3.188;2022-08-19T10:34:37;101206.97;;;24.41;46.32
72134;BME280;60011;51.518;-3.188;2022-08-19T10:37:03;101211.81;;;24.39;46.17
72134;BME280;60011;51.518;-3.188;2022-08-19T10:39:28;101209.41;;;24.38;46.24
72134;BME280;60011;51.518;-3.188;2022-08-19T10:41:52;101212.15;;;24.40;45.74
72134;BME280;60011;51.518;-3.188;2022-08-19T10:44:18;101208.24;;;24.41;45.69
72134;BME280;60011;51.518;-3.188;2022-08-19T10:46:43;101206.41;;;24.41;46.10
72134;BME280;60011;51.518;-3.188;2022-08-19T10:49:10;101204.46;;;24.41;45.62
72134;BME280;60011;51.518;-3.188;2022-08-19T10:51:34;101205.20;;;24.45;45.71
72134;BME280;60011;51.518;-3.188;2022-08-19T10:54:01;101207.28;;;24.48;45.61
72134;BME280;60011;51.518;-3.188;2022-08-19T10:56:26;101214.66;;;24.49;45.61
72134;BME280;60011;51.518;-3.188;2022-08-19T10:58:50;101216.53;;;24.46;45.51
72134;BME280;60011;51.518;-3.188;2022-08-19T11:01:16;101215.30;;;24.42;45.85
72134;BME280;60011;51.518;-3.188;2022-08-19T11:03:41;101224.98;;;24.44;45.40
72134;BME280;60011;51.518;-3.188;2022-08-19T11:06:08;101220.25;;;24.45;45.20
72134;BME280;60011;51.518;-3.188;2022-08-19T11:08:33;101217.67;;;24.45;44.88
72134;BME280;60011;51.518;-3.188;2022-08-19T11:10:59;101219.04;;;24.46;44.75
72134;BME280;60011;51.518;-3.188;2022-08-19T11:13:23;101220.43;;;24.50;44.90
72134;BME280;60011;51.518;-3.188;2022-08-19T11:15:56;101222.82;;;24.51;44.77
72134;BME280;60011;51.518;-3.188;2022-08-19T11:18:13;101223.93;;;24.49;44.55
72134;BME280;60011;51.518;-3.188;2022-08-19T11:20:38;101225.85;;;24.50;44.75
72134;BME280;60011;51.518;-3.188;2022-08-19T11:23:03;101229.22;;;24.49;44.86
72134;BME280;60011;51.518;-3.188;2022-08-19T11:25:29;101238.26;;;24.47;45.40
72134;BME280;60011;51.518;-3.188;2022-08-19T11:27:54;101230.11;;;24.50;45.41
72134;BME280;60011;51.518;-3.188;2022-08-19T11:30:19;101227.94;;;24.52;47.41
72134;BME280;60011;51.518;-3.188;2022-08-19T11:32:44;101232.00;;;24.54;47.08
72134;BME280;60011;51.518;-3.188;2022-08-19T11:35:10;101235.99;;;24.59;45.99
72134;BME280;60011;51.518;-3.188;2022-08-19T11:37:35;101226.61;;;24.60;44.87
72134;BME280;60011;51.518;-3.188;2022-08-19T11:40:01;101228.80;;;24.62;44.30
72134;BME280;60011;51.518;-3.188;2022-08-19T11:42:26;101222.11;;;24.60;43.60
72134;BME280;60011;51.518;-3.188;2022-08-19T11:44:51;101239.89;;;24.61;43.84
72134;BME280;60011;51.518;-3.188;2022-08-19T11:47:17;101236.15;;;24.58;42.71
72134;BME280;60011;51.518;-3.188;2022-08-19T11:49:42;101233.75;;;24.59;43.02
72134;BME280;60011;51.518;-3.188;2022-08-19T11:52:08;101231.48;;;24.64;42.69
72134;BME280;60011;51.518;-3.188;2022-08-19T11:54:33;101246.59;;;24.67;42.62
72134;BME280;60011;51.518;-3.188;2022-08-19T11:56:58;101235.41;;;24.69;41.92
72134;BME280;60011;51.518;-3.188;2022-08-19T11:59:23;101237.90;;;24.65;41.26
72134;BME280;60011;51.518;-3.188;2022-08-19T12:01:49;101243.76;;;24.60;41.38
72134;BME280;60011;51.518;-3.188;2022-08-19T12:04:14;101236.09;;;24.64;40.32
72134;BME280;60011;51.518;-3.188;2022-08-19T12:06:40;101239.49;;;24.68;40.78
72134;BME280;60011;51.518;-3.188;2022-08-19T12:09:06;101237.65;;;24.81;40.97
72134;BME280;60011;51.518;-3.188;2022-08-19T12:11:30;101239.15;;;24.84;41.40
72134;BME280;60011;51.518;-3.188;2022-08-19T12:13:55;101253.31;;;25.02;40.63
72134;BME280;60011;51.518;-3.188;2022-08-19T12:16:23;101237.74;;;25.19;40.63
72134;BME280;60011;51.518;-3.188;2022-08-19T12:18:46;101246.89;;;25.32;39.75
72134;BME280;60011;51.518;-3.188;2022-08-19T12:21:11;101247.52;;;25.18;40.17
72134;BME280;60011;51.518;-3.188;2022-08-19T12:23:37;101246.30;;;25.27;39.99
72134;BME280;60011;51.518;-3.188;2022-08-19T12:26:02;101241.78;;;25.27;40.21
72134;BME280;60011;51.518;-3.188;2022-08-19T12:28:27;101238.56;;;25.34;40.22